createdAt,value
2023-04-01T00:02:19.710Z,24.80
2023-04-01T00:05:06.673Z,26.10
2023-04-01T00:07:52.908Z,24.55
2023-04-01T00:10:38.440Z,21.48
2023-04-01T00:13:26.548Z,23.90
2023-04-01T00:16:21.203Z,23.17
2023-04-01T00:19:08.052Z,19.88
2023-04-01T00:21:53.499Z,19.42
2023-04-01T00:24:39.474Z,22.00
2023-04-01T00:27:25.016Z,19.90
2023-04-01T00:30:11.592Z,16.25
2023-04-01T00:32:57.455Z,19.08
2023-04-01T00:35:43.024Z,19.35
2023-04-01T00:38:28.307Z,20.83
2023-04-01T00:41:16.594Z,19.67
2023-04-01T00:44:20.000Z,22.90
2023-04-01T00:47:06.236Z,18.40
2023-04-01T00:49:53.571Z,20.42
2023-04-01T00:52:39.168Z,19.17
2023-04-01T00:55:25.373Z,18.88
2023-04-01T00:58:16.960Z,18.65
2023-04-01T01:01:02.649Z,19.08
2023-04-01T01:03:48.415Z,18.35
2023-04-01T01:06:41.109Z,17.95
2023-04-01T01:09:41.169Z,17.83
2023-04-01T01:12:30.695Z,18.10
2023-04-01T01:15:40.934Z,18.27
2023-04-01T01:19:06.273Z,17.63
2023-04-01T01:22:29.672Z,17.33
2023-04-01T01:25:21.603Z,17.13
2023-04-01T01:28:15.169Z,18.30
2023-04-01T01:31:18.918Z,16.73
2023-04-01T01:37:14.546Z,17.67
2023-04-01T01:40:06.960Z,17.85
2023-04-01T01:42:57.074Z,16.52
2023-04-01T01:45:48.702Z,18.67
2023-04-01T01:48:35.389Z,17.58
2023-04-01T01:51:22.873Z,14.60
2023-04-01T01:54:12.496Z,14.75
2023-04-01T01:57:07.253Z,14.02
2023-04-01T01:59:57.823Z,10.75
2023-04-01T02:02:47.068Z,10.25
2023-04-01T02:05:34.234Z,9.93
2023-04-01T02:08:57.233Z,9.20
2023-04-01T02:12:01.792Z,8.70
2023-04-01T02:15:07.540Z,8.75
2023-04-01T02:17:53.258Z,9.05
2023-04-01T02:20:40.960Z,10.25
2023-04-01T02:23:27.699Z,8.73
2023-04-01T02:26:15.396Z,9.15
2023-04-01T02:29:03.711Z,10.02
2023-04-01T02:31:50.570Z,8.88
2023-04-01T02:34:36.756Z,10.98
2023-04-01T02:37:22.484Z,9.73
2023-04-01T02:40:09.123Z,9.73
2023-04-01T02:42:54.979Z,11.50
2023-04-01T02:45:40.727Z,9.65
2023-04-01T02:48:26.141Z,13.15
2023-04-01T02:51:11.595Z,9.95
2023-04-01T02:53:57.344Z,8.40
2023-04-01T02:56:42.945Z,9.50
2023-04-01T02:59:28.455Z,8.57
2023-04-01T03:02:14.380Z,10.45
2023-04-01T03:04:59.957Z,8.15
2023-04-01T03:07:45.994Z,7.03
2023-04-01T03:10:31.693Z,10.68
2023-04-01T03:13:17.211Z,7.22
2023-04-01T03:16:02.986Z,7.55
2023-04-01T03:18:50.532Z,6.63
2023-04-01T03:21:36.399Z,6.65
2023-04-01T03:24:22.285Z,4.18
2023-04-01T03:27:07.835Z,7.53
2023-04-01T03:29:53.348Z,5.55
2023-04-01T03:32:39.039Z,7.25
2023-04-01T03:35:24.990Z,4.82
2023-04-01T03:38:10.426Z,4.28
2023-04-01T03:40:55.870Z,5.00
2023-04-01T03:43:41.499Z,4.82
2023-04-01T03:46:26.851Z,4.30
2023-04-01T03:49:12.892Z,6.18
2023-04-01T03:51:58.699Z,6.50
2023-04-01T03:54:44.437Z,5.65
2023-04-01T03:57:32.496Z,6.70
2023-04-01T04:00:18.298Z,5.65
2023-04-01T04:03:04.636Z,8.23
2023-04-01T04:05:51.091Z,5.82
2023-04-01T04:08:36.846Z,4.22
2023-04-01T04:11:23.377Z,6.38
2023-04-01T04:14:08.882Z,5.30
2023-04-01T04:16:54.413Z,6.32
2023-04-01T04:19:39.951Z,4.70
2023-04-01T04:22:25.621Z,5.38
2023-04-01T04:25:11.090Z,9.40
2023-04-01T04:27:56.642Z,5.80
2023-04-01T04:30:42.478Z,5.05
2023-04-01T04:33:28.034Z,3.88
2023-04-01T04:36:13.795Z,4.80
2023-04-01T04:39:02.973Z,3.38
2023-04-01T04:41:49.071Z,4.38
2023-04-01T04:44:34.787Z,3.20
2023-04-01T04:47:20.489Z,4.72
2023-04-01T04:50:06.873Z,3.33
2023-04-01T04:52:52.526Z,3.25
2023-04-01T04:55:38.202Z,3.10
2023-04-01T04:58:23.779Z,4.00
2023-04-01T05:01:12.403Z,6.38
2023-04-01T05:03:58.053Z,5.10
2023-04-01T05:06:46.115Z,3.65
2023-04-01T05:09:32.244Z,4.53
2023-04-01T05:12:17.901Z,4.72
2023-04-01T05:15:05.939Z,3.75
2023-04-01T05:17:51.773Z,5.38
2023-04-01T05:20:37.798Z,4.53
2023-04-01T05:23:23.884Z,4.97
2023-04-01T05:26:11.910Z,4.88
2023-04-01T05:28:57.361Z,4.15
2023-04-01T05:31:42.806Z,4.72
2023-04-01T05:34:28.648Z,5.07
2023-04-01T05:37:14.046Z,3.60
2023-04-01T05:39:59.984Z,4.15
2023-04-01T05:42:45.888Z,3.85
2023-04-01T05:45:31.821Z,4.78
2023-04-01T05:48:17.481Z,7.15
2023-04-01T05:51:04.938Z,5.28
2023-04-01T05:53:50.873Z,3.78
2023-04-01T05:56:36.506Z,5.13
2023-04-01T05:59:22.101Z,4.53
2023-04-01T06:02:09.292Z,5.80
2023-04-01T06:05:13.472Z,7.13
2023-04-01T06:08:10.785Z,5.97
2023-04-01T06:11:26.387Z,6.57
2023-04-01T06:14:28.427Z,6.72
2023-04-01T06:17:26.008Z,6.80
2023-04-01T06:20:17.872Z,7.63
2023-04-01T06:23:28.511Z,7.43
2023-04-01T06:26:14.029Z,6.93
2023-04-01T06:29:18.898Z,6.30
2023-04-01T06:32:42.950Z,7.45
2023-04-01T06:35:38.906Z,7.40
2023-04-01T06:38:56.820Z,10.50
2023-04-01T06:42:07.175Z,6.97
2023-04-01T06:44:58.658Z,6.38
2023-04-01T06:47:55.046Z,7.85
2023-04-01T06:51:11.114Z,9.20
2023-04-01T06:54:13.654Z,7.80
2023-04-01T06:57:20.591Z,7.57
2023-04-01T07:00:33.828Z,11.27
2023-04-01T07:03:42.622Z,7.90
2023-04-01T07:06:37.363Z,9.15
2023-04-01T07:09:37.908Z,8.00
2023-04-01T07:12:36.745Z,8.38
2023-04-01T07:15:29.578Z,8.05
2023-04-01T07:18:32.226Z,9.60
2023-04-01T07:21:36.705Z,8.60
2023-04-01T07:24:38.767Z,9.88
2023-04-01T07:27:24.734Z,10.63
2023-04-01T07:30:19.630Z,8.45
2023-04-01T07:33:20.784Z,9.40
2023-04-01T07:36:27.786Z,10.23
2023-04-01T07:39:45.343Z,10.80
2023-04-01T07:43:01.366Z,10.27
2023-04-01T07:46:01.812Z,11.98
2023-04-01T07:49:13.558Z,9.60
2023-04-01T07:52:21.406Z,8.77
2023-04-01T07:55:27.244Z,9.23
2023-04-01T07:58:39.990Z,7.78
2023-04-01T08:01:52.287Z,9.67
2023-04-01T08:04:46.601Z,7.88
2023-04-01T08:08:07.302Z,11.73
2023-04-01T08:10:59.781Z,8.98
2023-04-01T08:14:11.196Z,10.30
2023-04-01T08:17:18.699Z,10.45
2023-04-01T08:20:16.516Z,11.70
2023-04-01T08:23:11.064Z,10.90
2023-04-01T08:25:59.347Z,9.52
2023-04-01T08:28:55.395Z,11.15
2023-04-01T08:32:04.883Z,12.73
2023-04-01T08:35:07.836Z,12.20
2023-04-01T08:37:56.299Z,14.05
2023-04-01T08:41:01.500Z,13.52
2023-04-01T08:44:21.129Z,11.88
2023-04-01T08:47:40.481Z,14.95
2023-04-01T08:50:38.428Z,17.83
2023-04-01T08:53:48.523Z,14.93
2023-04-01T08:57:08.627Z,11.43
2023-04-01T09:00:32.848Z,16.13
2023-04-01T09:03:55.997Z,11.57
2023-04-01T09:09:39.873Z,11.05
2023-04-01T09:12:46.834Z,13.27
2023-04-01T09:16:17.371Z,11.27
2023-04-01T09:19:29.753Z,11.35
2023-04-01T09:22:53.859Z,10.98
2023-04-01T09:26:00.818Z,8.82
2023-04-01T09:28:46.601Z,14.32
2023-04-01T09:32:01.996Z,10.50
2023-04-01T09:35:12.331Z,10.02
2023-04-01T09:38:10.031Z,9.40
2023-04-01T09:41:12.984Z,9.68
2023-04-01T09:44:04.289Z,9.02
2023-04-01T09:47:09.037Z,10.15
2023-04-01T09:50:08.047Z,12.32
2023-04-01T09:53:12.363Z,11.50
2023-04-01T09:56:24.880Z,8.10
2023-04-01T09:59:42.348Z,8.27
2023-04-01T10:06:19.196Z,9.77
2023-04-01T10:09:31.261Z,11.75
2023-04-01T10:12:37.520Z,10.73
2023-04-01T10:15:38.410Z,11.82
2023-04-01T10:18:43.940Z,12.32
2023-04-01T10:21:35.788Z,11.98
2023-04-01T10:24:27.072Z,9.90
2023-04-01T10:27:31.730Z,6.60
2023-04-01T10:30:42.036Z,6.65
2023-04-01T10:34:16.350Z,6.30
2023-04-01T10:40:49.995Z,6.53
2023-04-01T10:44:33.160Z,7.15
2023-04-01T10:47:28.154Z,7.53
2023-04-01T10:50:14.143Z,7.90
2023-04-01T10:53:27.974Z,9.40
2023-04-01T10:56:36.395Z,9.95
2023-04-01T10:59:58.649Z,12.15
2023-04-01T11:03:12.361Z,8.77
2023-04-01T11:06:17.194Z,8.73
2023-04-01T11:09:23.378Z,8.45
2023-04-01T11:12:43.382Z,10.82
2023-04-01T11:16:06.293Z,10.63
2023-04-01T11:19:19.304Z,11.15
2023-04-01T11:22:31.766Z,11.82
2023-04-01T11:25:23.141Z,10.80
2023-04-01T11:28:45.601Z,13.15
2023-04-01T11:31:36.768Z,11.10
2023-04-01T11:34:46.528Z,10.70
2023-04-01T11:37:49.988Z,10.48
2023-04-01T11:41:10.158Z,13.57
2023-04-01T11:44:18.125Z,14.60
2023-04-01T11:47:25.686Z,11.50
2023-04-01T11:50:30.117Z,13.70
2023-04-01T11:53:42.725Z,12.85
2023-04-01T11:56:28.514Z,12.02
2023-04-01T11:59:33.120Z,11.73
2023-04-01T12:02:51.382Z,13.50
2023-04-01T12:05:44.720Z,11.25
2023-04-01T12:08:44.376Z,9.70
2023-04-01T12:11:45.011Z,8.80
2023-04-01T12:15:04.214Z,12.85
2023-04-01T12:18:10.563Z,8.57
2023-04-01T12:21:22.802Z,13.05
2023-04-01T12:24:47.929Z,8.70
2023-04-01T12:27:42.498Z,9.20
2023-04-01T12:30:48.018Z,6.88
2023-04-01T12:33:58.143Z,11.63
2023-04-01T12:36:51.286Z,10.40
2023-04-01T12:39:46.557Z,8.95
2023-04-01T12:42:34.673Z,11.63
2023-04-01T12:45:56.793Z,9.20
2023-04-01T12:49:01.077Z,8.80
2023-04-01T12:52:13.133Z,8.75
2023-04-01T12:55:17.154Z,8.07
2023-04-01T12:58:39.284Z,8.32
2023-04-01T13:01:48.173Z,13.15
2023-04-01T13:04:52.695Z,7.57
2023-04-01T13:08:10.557Z,7.38
2023-04-01T13:11:19.469Z,5.22
2023-04-01T13:14:33.332Z,8.43
2023-04-01T13:17:27.383Z,8.63
2023-04-01T13:20:34.507Z,6.15
2023-04-01T13:23:34.136Z,8.43
2023-04-01T13:26:48.682Z,7.65
2023-04-01T13:29:39.093Z,8.48
2023-04-01T13:32:43.634Z,7.00
2023-04-01T13:35:38.581Z,9.38
2023-04-01T13:38:33.044Z,10.65
2023-04-01T13:41:43.254Z,6.43
2023-04-01T13:45:06.503Z,7.07
2023-04-01T13:48:07.245Z,7.27
2023-04-01T13:51:18.033Z,5.88
2023-04-01T13:54:24.426Z,6.53
2023-04-01T13:57:44.310Z,9.20
2023-04-01T14:00:45.552Z,8.15
2023-04-01T14:03:56.204Z,7.70
2023-04-01T14:07:04.325Z,5.68
2023-04-01T14:09:59.501Z,5.03
2023-04-01T14:13:06.687Z,4.82
2023-04-01T14:15:52.260Z,9.95
2023-04-01T14:19:15.699Z,2.90
2023-04-01T14:22:35.285Z,5.57
2023-04-01T14:25:45.517Z,3.67
2023-04-01T14:28:55.699Z,6.55
2023-04-01T14:32:09.233Z,5.43
2023-04-01T14:35:21.878Z,6.85
2023-04-01T14:38:31.906Z,7.53
2023-04-01T14:41:17.574Z,7.63
2023-04-01T14:44:18.828Z,5.45
2023-04-01T14:47:10.278Z,7.63
2023-04-01T14:50:18.783Z,4.75
2023-04-01T14:53:31.118Z,7.22
2023-04-01T14:56:39.356Z,5.97
2023-04-01T14:59:24.804Z,6.70
2023-04-01T15:02:31.913Z,9.48
2023-04-01T15:05:26.596Z,6.53
2023-04-01T15:08:34.135Z,9.60
2023-04-01T15:11:33.307Z,7.72
2023-04-01T15:14:26.815Z,7.82
2023-04-01T15:17:34.386Z,8.23
2023-04-01T15:20:34.413Z,8.48
2023-04-01T15:23:25.984Z,9.90
2023-04-01T15:26:41.019Z,8.15
2023-04-01T15:30:02.646Z,8.98
2023-04-01T15:33:16.550Z,8.18
2023-04-01T15:39:09.310Z,11.88
2023-04-01T15:42:01.024Z,6.85
2023-04-01T15:45:04.651Z,10.80
2023-04-01T15:48:03.439Z,10.32
2023-04-01T15:51:23.246Z,8.50
2023-04-01T15:54:30.077Z,8.57
2023-04-01T15:57:15.890Z,8.13
2023-04-01T16:00:12.765Z,12.35
2023-04-01T16:03:17.212Z,8.95
2023-04-01T16:06:21.189Z,10.40
2023-04-01T16:09:21.924Z,9.73
2023-04-01T16:12:39.429Z,10.57
2023-04-01T16:16:02.042Z,8.38
2023-04-01T16:19:14.876Z,8.48
2023-04-01T16:22:15.778Z,13.05
2023-04-01T16:25:16.181Z,9.52
2023-04-01T16:28:13.360Z,10.95
2023-04-01T16:31:04.346Z,12.45
2023-04-01T16:33:59.823Z,10.25
2023-04-01T16:36:45.820Z,10.70
2023-04-01T16:39:47.561Z,12.50
2023-04-01T16:42:47.709Z,12.70
2023-04-01T16:45:56.688Z,12.75
2023-04-01T16:49:13.818Z,10.05
2023-04-01T16:52:17.322Z,10.48
2023-04-01T16:55:16.292Z,8.68
2023-04-01T16:58:02.679Z,11.45
2023-04-01T17:01:02.374Z,11.32
2023-04-01T17:03:52.152Z,9.80
2023-04-01T17:06:54.798Z,10.80
2023-04-01T17:09:48.543Z,11.27
2023-04-01T17:12:49.823Z,10.20
2023-04-01T17:16:06.281Z,8.95
2023-04-01T17:19:00.727Z,7.38
2023-04-01T17:22:17.011Z,9.38
2023-04-01T17:25:06.403Z,11.13
2023-04-01T17:28:01.486Z,8.45
2023-04-01T17:30:56.289Z,9.32
2023-04-01T17:34:05.758Z,8.30
2023-04-01T17:37:30.159Z,7.68
2023-04-01T17:40:30.543Z,8.52
2023-04-01T17:43:40.610Z,11.30
2023-04-01T17:46:35.848Z,8.40
2023-04-01T17:49:35.549Z,9.07
2023-04-01T17:52:26.253Z,8.98
2023-04-01T17:55:32.410Z,11.07
2023-04-01T17:58:30.036Z,9.85
2023-04-01T18:01:43.695Z,17.20
2023-04-01T18:04:52.191Z,15.27
2023-04-01T18:08:07.602Z,9.30
2023-04-01T18:11:06.819Z,11.55
2023-04-01T18:14:14.472Z,8.18
2023-04-01T18:17:12.392Z,10.63
2023-04-01T18:20:12.466Z,9.70
2023-04-01T18:23:30.537Z,9.70
2023-04-01T18:26:24.274Z,10.63
2023-04-01T18:29:23.260Z,11.98
2023-04-01T18:32:17.275Z,7.22
2023-04-01T18:35:25.385Z,9.82
2023-04-01T18:38:18.325Z,9.32
2023-04-01T18:44:35.089Z,9.27
2023-04-01T18:47:36.735Z,9.65
2023-04-01T18:50:35.297Z,9.65
2023-04-01T18:53:34.892Z,5.68
2023-04-01T18:56:33.330Z,6.82
2023-04-01T18:59:51.638Z,5.38
2023-04-01T19:02:51.976Z,7.65
2023-04-01T19:05:42.311Z,8.93
2023-04-01T19:08:37.066Z,8.13
2023-04-01T19:11:42.433Z,7.22
2023-04-01T19:15:29.859Z,8.43
2023-04-01T19:18:23.797Z,6.07
2023-04-01T19:21:30.107Z,8.23
2023-04-01T19:24:27.846Z,7.25
2023-04-01T19:27:33.253Z,9.68
2023-04-01T19:30:31.018Z,5.57
2023-04-01T19:34:00.207Z,6.22
2023-04-01T19:36:50.372Z,6.40
2023-04-01T19:39:48.052Z,6.38
2023-04-01T19:42:41.482Z,8.50
2023-04-01T19:45:42.479Z,6.68
2023-04-01T19:48:52.532Z,6.85
2023-04-01T19:51:52.579Z,6.35
2023-04-01T19:55:08.852Z,10.65
2023-04-01T19:58:10.010Z,6.18
2023-04-01T20:01:01.087Z,4.80
2023-04-01T20:03:52.634Z,8.50
2023-04-01T20:06:41.453Z,9.93
2023-04-01T20:09:38.435Z,8.27
2023-04-01T20:12:35.551Z,8.80
2023-04-01T20:15:44.402Z,8.20
2023-04-01T20:19:00.160Z,5.85
2023-04-01T20:21:48.875Z,6.13
2023-04-01T20:24:52.210Z,4.68
2023-04-01T20:27:45.366Z,12.48
2023-04-01T20:30:56.598Z,5.03
2023-04-01T20:34:21.229Z,9.00
2023-04-01T20:37:16.210Z,9.85
2023-04-01T20:40:41.330Z,10.32
2023-04-01T20:43:48.779Z,5.22
2023-04-01T20:47:13.110Z,6.13
2023-04-01T20:50:29.166Z,9.07
2023-04-01T20:53:24.990Z,6.63
2023-04-01T20:56:31.943Z,4.43
2023-04-01T20:59:41.117Z,6.88
2023-04-01T21:02:39.043Z,7.18
2023-04-01T21:05:24.978Z,6.65
2023-04-01T21:08:20.671Z,4.75
2023-04-01T21:11:29.080Z,5.63
2023-04-01T21:14:48.511Z,8.27
2023-04-01T21:18:04.907Z,7.80
2023-04-01T21:21:21.765Z,4.97
2023-04-01T21:24:13.511Z,8.75
2023-04-01T21:27:33.310Z,4.90
2023-04-01T21:30:24.832Z,5.90
2023-04-01T21:33:34.955Z,3.78
2023-04-01T21:36:43.988Z,5.50
2023-04-01T21:39:59.234Z,4.45
2023-04-01T21:43:22.290Z,7.60
2023-04-01T21:46:51.846Z,2.33
2023-04-01T21:50:11.935Z,5.53
2023-04-01T21:53:06.429Z,3.40
2023-04-01T21:56:10.896Z,4.00
2023-04-01T21:59:32.681Z,6.15
2023-04-01T22:02:36.073Z,2.72
2023-04-01T22:05:28.957Z,4.50
2023-04-01T22:08:52.766Z,4.97
2023-04-01T22:11:54.502Z,4.53
2023-04-01T22:14:41.480Z,6.15
2023-04-01T22:17:38.708Z,8.18
2023-04-01T22:21:06.188Z,5.75
2023-04-01T22:24:07.559Z,6.53
2023-04-01T22:27:24.693Z,3.83
2023-04-01T22:30:16.997Z,4.28
2023-04-01T22:33:30.010Z,7.45
2023-04-01T22:36:46.858Z,4.68
2023-04-01T22:39:35.732Z,5.75
2023-04-01T22:42:30.996Z,5.90
2023-04-01T22:45:50.466Z,4.05
2023-04-01T22:48:58.885Z,4.10
2023-04-01T22:52:03.308Z,5.38
2023-04-01T22:54:55.560Z,5.53
2023-04-01T22:58:13.861Z,2.00
2023-04-01T23:01:24.255Z,4.53
2023-04-01T23:04:13.496Z,3.17
2023-04-01T23:07:08.520Z,1.98
2023-04-01T23:09:56.549Z,2.80
2023-04-01T23:12:43.106Z,2.95
2023-04-01T23:15:30.511Z,2.47
2023-04-01T23:18:18.983Z,3.25
2023-04-01T23:21:35.557Z,2.58
2023-04-01T23:24:31.874Z,3.15
2023-04-01T23:27:31.708Z,3.63
2023-04-01T23:30:41.216Z,9.32
2023-04-01T23:33:32.407Z,4.15
2023-04-01T23:36:18.267Z,3.58
2023-04-01T23:39:13.563Z,4.25
2023-04-01T23:42:20.898Z,3.20
2023-04-01T23:45:15.076Z,3.95
2023-04-01T23:48:01.524Z,4.10
2023-04-01T23:50:50.760Z,3.88
2023-04-01T23:53:36.280Z,7.57
2023-04-01T23:56:22.005Z,4.55
2023-04-01T23:59:18.255Z,3.92
